Time;durP1;ratioP1;P1;durP2;ratioP2;P2;SDS_P1;SDS_P2;PMS_P1;PMS_P2;Temp;Humidity;BMP_temperature;BMP_pressure;BME280_temperature;BME280_humidity;BME280_pressure;Samples;Min_cycle;Max_cycle;Signal;HPM_P1;HPM_P2
2024/03/21 00:00:43;;;;;;;22.65;17.52;;;12.20;99.90;;;;;;6275731;22;20070;-67
2024/03/21 00:03:08;;;;;;;24.02;16.63;;;12.20;99.90;;;;;;6276038;22;20026;-67
2024/03/21 00:05:34;;;;;;;24.48;15.95;;;12.10;99.90;;;;;;6276770;22;20472;-67
2024/03/21 00:08:00;;;;;;;23.70;16.42;;;12.10;99.90;;;;;;6277779;22;20004;-67
2024/03/21 00:10:27;;;;;;;30.65;17.17;;;12.10;99.90;;;;;;6278123;22;20000;-67
2024/03/21 00:12:53;;;;;;;27.58;17.25;;;12.10;99.90;;;;;;6278108;22;20018;-67
2024/03/21 00:15:19;;;;;;;23.17;17.40;;;12.10;99.90;;;;;;6278103;22;20045;-66
2024/03/21 00:17:46;;;;;;;20.33;16.35;;;12.10;99.90;;;;;;6277766;22;20020;-67
2024/03/21 00:20:13;;;;;;;24.67;16.52;;;12.10;99.90;;;;;;6278060;22;20475;-68
2024/03/21 00:22:40;;;;;;;21.98;16.08;;;12.10;99.90;;;;;;6277959;22;20337;-67
2024/03/21 00:25:07;;;;;;;19.88;15.15;;;12.10;99.90;;;;;;6278190;22;20008;-67
2024/03/21 00:27:34;;;;;;;23.08;15.73;;;12.10;99.90;;;;;;6278597;22;20042;-67
2024/03/21 00:30:01;;;;;;;26.02;17.00;;;12.10;99.90;;;;;;6278277;22;20014;-67
2024/03/21 00:32:27;;;;;;;21.05;16.20;;;12.10;99.90;;;;;;6277763;22;20014;-67
2024/03/21 00:34:54;;;;;;;25.35;16.67;;;12.20;99.90;;;;;;6278110;22;20015;-67
2024/03/21 00:37:21;;;;;;;20.88;16.25;;;12.20;99.90;;;;;;6278900;22;20074;-67
2024/03/21 00:39:48;;;;;;;25.42;17.85;;;12.20;99.90;;;;;;6278694;22;20007;-67
2024/03/21 00:42:15;;;;;;;25.27;18.85;;;12.10;99.90;;;;;;6278315;22;20325;-67
2024/03/21 00:44:42;;;;;;;25.23;17.98;;;12.10;99.90;;;;;;6278341;22;20357;-67
2024/03/21 00:47:13;;;;;;;28.85;18.67;;;12.10;99.90;;;;;;6278255;22;20325;-67
2024/03/21 00:54:06;;;;;;;21.17;16.40;;;12.00;99.90;;;;;;6214382;23;20005;-67
2024/03/21 00:57:17;;;;;;;;;;;;;;;;;;;;;
2024/03/21 01:03:49;;;;;;;20.30;17.27;;;12.00;99.90;;;;;;6124152;23;20103;-67
2024/03/21 01:06:32;;;;;;;24.00;15.85;;;12.00;99.90;;;;;;6097056;23;20373;-67
2024/03/21 01:09:38;;;;;;;;;;;;;;;;;;;;;
2024/03/21 01:12:07;;;;;;;23.08;16.77;;;11.90;99.90;;;;;;6254161;22;20086;-67
2024/03/21 01:14:33;;;;;;;23.73;16.65;;;11.90;99.90;;;;;;6277312;22;20307;-67
2024/03/21 01:16:59;;;;;;;24.40;17.05;;;11.90;99.90;;;;;;6277597;22;20049;-67
2024/03/21 01:19:24;;;;;;;25.27;18.20;;;11.90;99.90;;;;;;6277294;22;20012;-67
2024/03/21 01:21:50;;;;;;;29.35;17.00;;;11.90;99.90;;;;;;6277446;22;19999;-67
2024/03/21 01:24:17;;;;;;;29.35;17.98;;;11.90;99.90;;;;;;6277657;22;20435;-67
2024/03/21 01:26:43;;;;;;;21.98;16.75;;;11.90;99.90;;;;;;6277683;22;20023;-67
2024/03/21 01:29:09;;;;;;;24.00;17.50;;;11.90;99.90;;;;;;6277013;22;20000;-76
2024/03/21 01:31:34;;;;;;;27.63;17.35;;;11.90;99.90;;;;;;6276906;22;20049;-67
2024/03/21 01:34:01;;;;;;;27.40;17.27;;;12.00;99.90;;;;;;6277448;22;20006;-67
2024/03/21 01:36:27;;;;;;;30.58;17.63;;;11.90;99.90;;;;;;6277408;22;20057;-67
2024/03/21 01:38:53;;;;;;;22.45;16.60;;;12.00;99.90;;;;;;6276738;22;20434;-67
2024/03/21 01:41:19;;;;;;;24.83;18.67;;;12.00;99.90;;;;;;6276301;22;20006;-75
2024/03/21 01:43:45;;;;;;;24.58;18.38;;;12.00;99.90;;;;;;6277118;22;20019;-67
2024/03/21 01:46:14;;;;;;;22.17;17.17;;;12.00;99.90;;;;;;6276943;22;20022;-67
2024/03/21 01:48:42;;;;;;;25.95;18.20;;;12.10;99.90;;;;;;6277175;22;20000;-67
2024/03/21 01:51:08;;;;;;;24.45;18.45;;;12.10;99.90;;;;;;6277055;22;20418;-67
2024/03/21 01:53:35;;;;;;;25.77;19.08;;;12.10;99.90;;;;;;6277394;22;20004;-67
2024/03/21 01:56:02;;;;;;;22.38;18.40;;;12.10;99.90;;;;;;6277219;22;20029;-67
2024/03/21 01:58:27;;;;;;;25.30;18.88;;;12.10;99.90;;;;;;6274913;22;20434;-67
2024/03/21 02:00:54;;;;;;;29.67;18.83;;;12.10;99.90;;;;;;6273722;22;20007;-67
2024/03/21 02:03:20;;;;;;;26.15;17.23;;;12.10;99.90;;;;;;6274097;22;20426;-67
2024/03/21 02:05:46;;;;;;;24.17;16.75;;;12.10;99.90;;;;;;6276104;22;20034;-67
2024/03/21 02:08:13;;;;;;;23.52;16.92;;;12.10;99.90;;;;;;6277058;22;20007;-67
2024/03/21 02:10:39;;;;;;;22.25;16.90;;;12.10;99.90;;;;;;6277081;22;20071;-67
2024/03/21 02:13:06;;;;;;;25.00;16.95;;;12.10;99.90;;;;;;6276754;22;20006;-67
2024/03/21 02:15:32;;;;;;;26.25;17.10;;;12.10;99.90;;;;;;6277274;22;20134;-67
2024/03/21 02:17:59;;;;;;;26.00;17.42;;;12.10;99.90;;;;;;6277295;22;20016;-67
2024/03/21 02:20:25;;;;;;;22.20;17.40;;;12.10;99.90;;;;;;6277078;22;20330;-67
2024/03/21 02:22:51;;;;;;;21.23;17.35;;;12.10;99.90;;;;;;6277229;22;20014;-67
2024/03/21 02:25:26;;;;;;;20.77;17.35;;;12.10;99.90;;;;;;6276880;22;20022;-67
2024/03/21 02:44:25;;;;;;;24.08;17.20;;;12.00;99.90;;;;;;6037463;23;20026;-67
2024/03/21 02:46:57;;;;;;;24.23;16.50;;;11.90;99.90;;;;;;6036766;23;20012;-67
2024/03/21 02:49:32;;;;;;;25.77;15.63;;;11.90;99.90;;;;;;6144441;23;20010;-67
2024/03/21 02:51:58;;;;;;;23.92;15.65;;;11.90;99.90;;;;;;6128675;23;20352;-67
2024/03/21 02:54:24;;;;;;;24.08;16.48;;;11.90;99.90;;;;;;6194518;22;20057;-67
2024/03/21 02:56:50;;;;;;;25.10;16.40;;;11.90;99.90;;;;;;6276347;22;20004;-67
2024/03/21 02:59:16;;;;;;;21.85;16.63;;;11.90;99.90;;;;;;6276670;22;20014;-67
2024/03/21 03:01:42;;;;;;;21.80;16.80;;;11.90;99.90;;;;;;6277104;22;20061;-67
2024/03/21 03:04:10;;;;;;;19.23;15.48;;;11.90;99.90;;;;;;6276827;22;20115;-67
2024/03/21 03:06:36;;;;;;;25.63;16.63;;;11.90;99.90;;;;;;6276634;22;19996;-67
2024/03/21 03:09:02;;;;;;;22.00;15.80;;;11.80;99.90;;;;;;6276434;22;20086;-66
2024/03/21 03:11:28;;;;;;;19.83;15.70;;;11.80;99.90;;;;;;6276594;22;20003;-67
2024/03/21 03:13:54;;;;;;;20.65;17.15;;;11.80;99.90;;;;;;6276894;22;20008;-67
2024/03/21 03:16:19;;;;;;;23.25;16.88;;;11.80;99.90;;;;;;6249453;22;20012;-67
2024/03/21 03:18:45;;;;;;;23.77;17.63;;;11.80;99.90;;;;;;6276051;22;20438;-67
2024/03/21 03:21:11;;;;;;;19.77;16.42;;;11.80;99.90;;;;;;6276034;22;20007;-67
2024/03/21 03:23:36;;;;;;;21.23;17.00;;;11.80;99.90;;;;;;6275866;22;20007;-67
2024/03/21 03:26:02;;;;;;;20.65;15.82;;;11.70;99.90;;;;;;6275792;22;19996;-67
2024/03/21 03:28:28;;;;;;;20.45;16.42;;;11.70;99.90;;;;;;6276464;22;20039;-67
2024/03/21 03:30:54;;;;;;;24.25;17.02;;;11.80;99.90;;;;;;6276245;22;20090;-67
2024/03/21 03:36:04;;;;;;;24.67;17.92;;;11.70;99.90;;;;;;6276305;22;20038;-67
2024/03/21 03:38:30;;;;;;;22.58;17.42;;;11.60;99.90;;;;;;6276402;22;19999;-67
2024/03/21 03:40:55;;;;;;;27.05;17.50;;;11.60;99.90;;;;;;6276672;22;20012;-67
2024/03/21 03:43:21;;;;;;;20.67;16.75;;;11.60;99.90;;;;;;6276139;22;20036;-67
2024/03/21 03:45:48;;;;;;;24.05;16.83;;;11.60;99.90;;;;;;6276095;22;20150;-67
2024/03/21 03:48:14;;;;;;;25.50;16.83;;;11.60;99.90;;;;;;6276214;22;20082;-67
2024/03/21 03:50:40;;;;;;;23.48;16.55;;;11.50;99.90;;;;;;6276555;22;20437;-67
2024/03/21 03:53:05;;;;;;;24.00;17.23;;;11.50;99.90;;;;;;6276737;22;20007;-67
2024/03/21 03:55:31;;;;;;;24.05;17.15;;;11.50;99.90;;;;;;6276464;22;19995;-67
2024/03/21 03:57:57;;;;;;;22.45;16.52;;;11.50;99.90;;;;;;6276548;22;20031;-67
2024/03/21 04:00:23;;;;;;;25.88;17.40;;;11.40;99.90;;;;;;6276511;22;20006;-67
2024/03/21 04:03:43;;;;;;;20.40;16.85;;;11.40;99.90;;;;;;6276351;22;20101;-67
2024/03/21 04:24:36;;;;;;;27.13;23.75;;;11.30;99.90;;;;;;6108841;22;20029;-68
2024/03/21 04:27:10;;;;;;;26.95;18.80;;;11.30;99.90;;;;;;6134367;23;20495;-67
2024/03/21 04:29:37;;;;;;;28.63;19.58;;;11.30;99.90;;;;;;6212799;23;20335;-67
2024/03/21 04:32:03;;;;;;;23.25;17.98;;;11.30;99.90;;;;;;6248201;22;20008;-66
2024/03/21 04:34:29;;;;;;;25.95;18.25;;;11.30;99.90;;;;;;6275918;22;20333;-67
2024/03/21 04:36:55;;;;;;;23.15;16.80;;;11.30;99.90;;;;;;6275863;22;19996;-67
2024/03/21 04:39:20;;;;;;;22.67;17.17;;;11.20;99.90;;;;;;6275650;22;19996;-66
2024/03/21 04:41:46;;;;;;;23.17;17.30;;;11.30;99.90;;;;;;6275932;22;20035;-66
2024/03/21 04:44:12;;;;;;;21.35;16.33;;;11.30;99.90;;;;;;6275804;22;20021;-67
2024/03/21 04:46:38;;;;;;;23.30;17.27;;;11.30;99.90;;;;;;6275617;22;20387;-67
2024/03/21 04:49:03;;;;;;;23.02;16.15;;;11.30;99.90;;;;;;6275785;22;20011;-67
2024/03/21 04:51:29;;;;;;;26.15;17.70;;;11.20;99.90;;;;;;6276669;22;20069;-67
2024/03/21 04:53:55;;;;;;;24.67;16.42;;;11.20;99.90;;;;;;6277630;22;20050;-67
2024/03/21 04:56:21;;;;;;;21.92;16.85;;;11.20;99.90;;;;;;6277840;22;20087;-67
2024/03/21 04:58:48;;;;;;;22.73;16.75;;;11.10;99.90;;;;;;6277316;22;19999;-67
2024/03/21 05:01:13;;;;;;;29.30;16.65;;;11.10;99.90;;;;;;6277283;22;20375;-67
2024/03/21 05:03:39;;;;;;;26.67;16.95;;;11.10;99.90;;;;;;6277793;22;20008;-67
2024/03/21 05:06:05;;;;;;;22.80;15.55;;;11.00;99.90;;;;;;6277702;22;20027;-67
2024/03/21 05:08:30;;;;;;;26.33;16.42;;;11.00;99.90;;;;;;6277255;22;20095;-67
2024/03/21 05:10:56;;;;;;;19.60;16.20;;;11.00;99.90;;;;;;6277284;22;20004;-66
2024/03/21 05:13:22;;;;;;;23.08;15.50;;;10.90;99.90;;;;;;6277451;22;20003;-67
2024/03/21 05:15:49;;;;;;;21.23;15.95;;;10.90;99.90;;;;;;6277495;22;20004;-67
2024/03/21 05:18:14;;;;;;;20.27;16.13;;;10.80;99.90;;;;;;6277446;22;20377;-67
2024/03/21 05:20:40;;;;;;;22.95;15.90;;;10.80;99.90;;;;;;6277128;22;20020;-67
2024/03/21 05:23:06;;;;;;;24.20;16.33;;;10.80;99.90;;;;;;6276921;22;20034;-67
2024/03/21 05:25:35;;;;;;;23.63;16.42;;;10.80;99.90;;;;;;6277266;22;20131;-67
2024/03/21 05:28:01;;;;;;;24.63;16.60;;;10.80;99.90;;;;;;6277422;22;20298;-67
2024/03/21 05:30:27;;;;;;;23.60;16.77;;;10.80;99.90;;;;;;6277283;22;20026;-68
2024/03/21 05:32:52;;;;;;;24.58;18.08;;;10.70;99.90;;;;;;6278039;22;19999;-68
2024/03/21 05:35:18;;;;;;;26.40;17.85;;;10.70;99.90;;;;;;6278277;22;20000;-68
2024/03/21 05:37:44;;;;;;;26.77;19.10;;;10.80;99.90;;;;;;6277859;22;20037;-67
2024/03/21 05:40:12;;;;;;;24.88;18.27;;;10.70;99.90;;;;;;6277544;22;20004;-67
2024/03/21 05:47:17;;;;;;;24.48;18.55;;;10.80;99.90;;;;;;6124280;23;20014;-66
2024/03/21 05:50:33;;;;;;;25.33;18.20;;;10.80;99.90;;;;;;6037372;23;20011;-67
2024/03/21 06:00:42;;;;;;;34.65;20.70;;;10.90;99.90;;;;;;5957564;23;20073;-68
2024/03/21 06:04:02;;;;;;;28.30;20.17;;;11.00;99.90;;;;;;6008427;23;20016;-71
2024/03/21 06:06:31;;;;;;;27.98;17.75;;;11.00;99.90;;;;;;5996863;23;20007;-70
2024/03/21 06:08:57;;;;;;;32.15;19.40;;;11.10;99.90;;;;;;6037646;23;20454;-67
2024/03/21 06:11:23;;;;;;;24.88;17.42;;;11.10;99.90;;;;;;6104786;22;20086;-69
2024/03/21 06:13:50;;;;;;;31.85;17.80;;;11.20;99.90;;;;;;6277050;22;20034;-66
2024/03/21 06:16:16;;;;;;;26.52;17.42;;;11.20;99.90;;;;;;6249738;22;20323;-67
2024/03/21 06:18:42;;;;;;;29.00;16.02;;;11.30;99.90;;;;;;6276514;22;20003;-67
2024/03/21 06:21:08;;;;;;;32.25;17.48;;;11.40;99.90;;;;;;6276191;22;20020;-67
2024/03/21 06:23:33;;;;;;;31.83;18.80;;;11.50;99.90;;;;;;6249509;22;20019;-67
2024/03/21 06:25:59;;;;;;;37.10;20.63;;;11.50;99.90;;;;;;6276548;22;19996;-67
2024/03/21 06:28:25;;;;;;;32.78;20.70;;;11.50;99.90;;;;;;6276373;22;20011;-67
2024/03/21 06:30:51;;;;;;;34.75;19.98;;;11.50;99.90;;;;;;6276010;22;20003;-67
2024/03/21 06:33:17;;;;;;;38.53;20.95;;;11.50;99.90;;;;;;6276546;22;20423;-67
2024/03/21 06:35:43;;;;;;;35.80;19.80;;;11.50;99.90;;;;;;6276764;22;20031;-67
2024/03/21 06:38:10;;;;;;;34.25;19.23;;;11.50;99.90;;;;;;6276566;22;20022;-67
2024/03/21 06:40:35;;;;;;;40.78;20.40;;;11.50;99.90;;;;;;6276480;22;20012;-67
2024/03/21 06:43:01;;;;;;;44.85;21.10;;;11.50;99.90;;;;;;6277081;22;20038;-67
2024/03/21 06:45:27;;;;;;;70.03;24.05;;;11.50;99.90;;;;;;6277051;22;20007;-67
2024/03/21 06:47:53;;;;;;;70.85;24.88;;;11.50;99.90;;;;;;6277167;22;20012;-67
2024/03/21 06:50:19;;;;;;;77.78;25.27;;;11.50;99.90;;;;;;6276812;22;20071;-67
2024/03/21 06:52:50;;;;;;;67.28;23.80;;;11.60;99.90;;;;;;6249153;22;20010;-67
2024/03/21 06:55:17;;;;;;;51.28;22.83;;;11.70;99.90;;;;;;6249444;22;20007;-67
2024/03/21 06:57:48;;;;;;;45.63;23.10;;;11.70;99.90;;;;;;6276721;22;19996;-67
2024/03/21 07:00:16;;;;;;;41.92;22.98;;;11.80;99.90;;;;;;6276216;22;20007;-67
2024/03/21 07:02:42;;;;;;;43.30;22.95;;;11.80;99.90;;;;;;6276535;22;20050;-67
2024/03/21 07:05:09;;;;;;;41.38;22.65;;;11.90;99.90;;;;;;6249554;22;20434;-67
2024/03/21 07:07:35;;;;;;;45.15;21.88;;;12.00;99.90;;;;;;6277373;22;20034;-66
2024/03/21 07:10:02;;;;;;;33.92;23.42;;;12.00;99.90;;;;;;6277008;22;19996;-66
2024/03/21 07:12:29;;;;;;;36.40;22.08;;;12.10;99.90;;;;;;6277094;22;20011;-66
2024/03/21 07:14:55;;;;;;;35.17;21.73;;;12.20;99.90;;;;;;6276906;22;20300;-67
2024/03/21 07:17:21;;;;;;;34.38;23.23;;;12.30;99.90;;;;;;6276900;22;20071;-67
2024/03/21 07:20:41;;;;;;;33.55;21.70;;;12.30;99.90;;;;;;6249166;22;20026;-67
2024/03/21 07:26:32;;;;;;;34.55;21.77;;;12.50;99.90;;;;;;6123773;23;20021;-67
2024/03/21 07:29:28;;;;;;;37.33;24.02;;;12.60;99.90;;;;;;6119701;23;20009;-67
2024/03/21 07:31:55;;;;;;;32.60;21.95;;;12.60;99.90;;;;;;6161253;23;20035;-67
2024/03/21 07:34:28;;;;;;;39.03;23.85;;;12.70;99.90;;;;;;6181216;23;20376;-67
2024/03/21 07:36:54;;;;;;;;;;;12.90;99.90;;;;;;6183169;23;20015;-67
2024/03/21 07:39:20;;;;;;;35.63;23.02;;;12.90;99.90;;;;;;6192181;22;19900;-68
2024/03/21 07:41:47;;;;;;;33.63;22.75;;;13.00;99.90;;;;;;6275136;22;20004;-69
2024/03/21 07:44:13;;;;;;;37.53;24.08;;;13.00;99.90;;;;;;6276070;22;20346;-68
2024/03/21 07:46:40;;;;;;;43.00;24.45;;;13.10;99.90;;;;;;6275529;22;19995;-67
2024/03/21 07:49:07;;;;;;;33.47;23.77;;;13.10;99.90;;;;;;6248361;22;20008;-68
2024/03/21 07:51:33;;;;;;;38.60;24.70;;;13.20;99.90;;;;;;6248403;22;20303;-68
2024/03/21 07:53:59;;;;;;;40.53;24.27;;;13.30;99.90;;;;;;6275717;22;20380;-67
2024/03/21 07:56:25;;;;;;;33.10;23.95;;;13.30;99.90;;;;;;6275529;22;20025;-67
2024/03/21 07:58:52;;;;;;;33.65;23.45;;;13.30;99.90;;;;;;6275852;22;20322;-67
2024/03/21 08:01:19;;;;;;;38.45;23.95;;;13.30;99.90;;;;;;6273132;22;20399;-67
2024/03/21 08:03:46;;;;;;;34.88;22.75;;;13.40;99.90;;;;;;6275735;22;20000;-67
2024/03/21 08:06:12;;;;;;;32.35;22.63;;;13.50;99.90;;;;;;6275611;22;20015;-67
2024/03/21 08:08:38;;;;;;;31.60;22.95;;;13.50;99.90;;;;;;6274804;22;20358;-67
2024/03/21 08:11:03;;;;;;;37.65;25.08;;;13.60;99.90;;;;;;6275661;22;20007;-67
2024/03/21 08:13:29;;;;;;;35.72;22.67;;;13.70;99.90;;;;;;6275442;22;19996;-67
2024/03/21 08:15:56;;;;;;;37.65;23.40;;;13.80;99.90;;;;;;6275461;22;20497;-67
2024/03/21 08:18:24;;;;;;;39.50;23.90;;;13.80;99.90;;;;;;6276057;22;20340;-67
2024/03/21 08:20:53;;;;;;;34.05;22.10;;;13.90;99.90;;;;;;6275043;22;20026;-67
2024/03/21 08:23:19;;;;;;;38.35;22.88;;;14.00;99.90;;;;;;6274783;22;20342;-67
2024/03/21 08:25:45;;;;;;;31.73;21.13;;;14.10;99.90;;;;;;6275253;22;19996;-67
2024/03/21 08:28:12;;;;;;;29.95;21.00;;;14.10;99.90;;;;;;6275344;22;20000;-67
2024/03/21 08:30:45;;;;;;;32.47;20.77;;;14.20;99.90;;;;;;6275467;22;20026;-67
2024/03/21 08:33:13;;;;;;;31.73;21.85;;;14.20;99.90;;;;;;6275093;22;20050;-68
2024/03/21 08:35:39;;;;;;;27.75;21.15;;;14.30;99.90;;;;;;6275449;22;20019;-67
2024/03/21 08:38:05;;;;;;;32.45;20.88;;;14.30;99.90;;;;;;6275262;22;20027;-67
2024/03/21 08:40:32;;;;;;;30.17;20.08;;;14.40;99.90;;;;;;6275032;22;20378;-67
2024/03/21 08:42:57;;;;;;;33.78;21.75;;;14.40;99.90;;;;;;6276146;22;20011;-67
2024/03/21 08:45:23;;;;;;;32.95;20.20;;;14.30;99.90;;;;;;6277350;22;20382;-69
2024/03/21 08:47:50;;;;;;;28.73;18.35;;;14.40;99.90;;;;;;6273471;22;20584;-68
2024/03/21 08:50:16;;;;;;;29.45;18.90;;;14.40;99.90;;;;;;6274674;22;20378;-68
2024/03/21 08:52:42;;;;;;;25.70;19.20;;;14.30;99.90;;;;;;6275713;22;20004;-68
2024/03/21 08:55:13;;;;;;;28.98;19.00;;;14.20;99.90;;;;;;6277743;22;20002;-69
2024/03/21 09:11:55;;;;;;;27.63;19.20;;;14.20;99.90;;;;;;5993448;23;20011;-68
2024/03/21 09:21:45;;;;;;;30.27;19.73;;;14.00;99.90;;;;;;6037619;23;20471;-68
2024/03/21 09:24:11;;;;;;;24.85;18.13;;;14.00;99.90;;;;;;6057691;23;20344;-67
2024/03/21 09:26:39;;;;;;;45.03;32.60;;;14.00;99.90;;;;;;6124714;23;20010;-67
2024/03/21 09:29:05;;;;;;;21.80;16.55;;;14.00;99.90;;;;;;6228482;22;20008;-67
2024/03/21 09:31:31;;;;;;;140.65;65.20;;;14.00;99.90;;;;;;6276277;22;20469;-67
2024/03/21 09:34:00;;;;;;;85.43;43.92;;;14.10;99.90;;;;;;6274538;22;20012;-67
2024/03/21 09:36:26;;;;;;;30.75;19.98;;;14.10;99.90;;;;;;6274990;22;20090;-68
2024/03/21 09:38:53;;;;;;;30.90;22.13;;;14.10;99.90;;;;;;6277049;22;20071;-67
2024/03/21 09:41:18;;;;;;;22.67;18.05;;;14.10;99.90;;;;;;6277797;22;20333;-67
2024/03/21 09:43:44;;;;;;;26.13;18.45;;;14.10;99.90;;;;;;6277462;22;20015;-68
2024/03/21 09:46:15;;;;;;;24.98;16.98;;;14.20;99.90;;;;;;6277538;22;19996;-68
2024/03/21 09:48:42;;;;;;;24.65;16.90;;;14.20;99.90;;;;;;6277395;22;20004;-68
2024/03/21 09:51:21;;;;;;;26.42;19.23;;;14.20;99.90;;;;;;6277151;22;20546;-67
2024/03/21 09:53:49;;;;;;;24.75;17.00;;;14.20;99.90;;;;;;6277587;22;20007;-67
2024/03/21 09:56:18;;;;;;;21.50;16.17;;;14.20;99.90;;;;;;6277421;22;20441;-68
2024/03/21 09:58:45;;;;;;;23.65;17.35;;;14.20;99.90;;;;;;6276608;22;20049;-68
2024/03/21 10:01:29;;;;;;;21.83;15.68;;;14.20;99.90;;;;;;6276695;22;20059;-68
2024/03/21 10:03:58;;;;;;;25.92;16.88;;;14.20;99.90;;;;;;6275333;22;20012;-68
2024/03/21 10:06:24;;;;;;;18.45;15.13;;;14.20;99.90;;;;;;6276667;22;20006;-68
2024/03/21 10:08:51;;;;;;;22.58;16.55;;;14.30;99.90;;;;;;6276831;22;20010;-68
2024/03/21 10:11:19;;;;;;;21.88;16.42;;;14.30;99.90;;;;;;6277435;22;20091;-68
2024/03/21 10:13:45;;;;;;;21.40;16.55;;;14.30;99.90;;;;;;6277048;22;20003;-68
2024/03/21 10:16:15;;;;;;;24.35;17.02;;;14.40;99.90;;;;;;6277084;22;19996;-68
2024/03/21 10:18:41;;;;;;;24.17;17.65;;;14.40;99.90;;;;;;6276881;22;20004;-68
2024/03/21 10:21:16;;;;;;;22.80;17.15;;;14.40;99.90;;;;;;6276282;22;20016;-68
2024/03/21 10:23:43;;;;;;;22.75;18.23;;;14.50;99.90;;;;;;6277550;22;20026;-68
2024/03/21 10:26:16;;;;;;;24.75;18.65;;;14.50;99.90;;;;;;6276828;22;20015;-68
2024/03/21 10:28:46;;;;;;;26.55;18.35;;;14.60;99.90;;;;;;6277709;22;20054;-68
2024/03/21 10:31:16;;;;;;;26.00;18.30;;;14.60;99.90;;;;;;6277273;22;20004;-67
2024/03/21 10:33:52;;;;;;;20.35;17.00;;;14.70;99.90;;;;;;6277368;22;20004;-67
2024/03/21 10:37:17;;;;;;;22.17;17.60;;;14.70;99.90;;;;;;6276661;22;20065;-67
2024/03/21 10:47:29;;;;;;;27.50;17.48;;;14.80;99.90;;;;;;5962249;23;20600;-67
2024/03/21 10:50:49;;;;;;;;;;;;;;;;;;;;;
2024/03/21 10:54:03;;;;;;;23.77;17.83;;;14.90;99.90;;;;;;5920723;24;20013;-67
2024/03/21 11:00:10;;;;;;;24.35;18.38;;;14.90;99.90;;;;;;5892867;23;20433;-67
2024/03/21 11:02:38;;;;;;;23.60;17.73;;;15.00;99.90;;;;;;6276402;22;20075;-67
2024/03/21 11:05:14;;;;;;;23.30;18.95;;;15.00;99.90;;;;;;6276622;22;19999;-67
2024/03/21 11:07:40;;;;;;;23.90;18.38;;;15.00;99.90;;;;;;6276325;22;20012;-67
2024/03/21 11:10:17;;;;;;;26.05;18.45;;;15.10;99.90;;;;;;6276810;22;20026;-68
2024/03/21 11:12:44;;;;;;;55.80;39.97;;;15.10;99.90;;;;;;6276141;22;20330;-67
2024/03/21 11:15:10;;;;;;;28.05;21.80;;;15.20;99.90;;;;;;6249375;22;20322;-67
2024/03/21 11:18:09;;;;;;;23.38;17.65;;;15.20;99.90;;;;;;6293196;22;20023;-67
2024/03/21 11:23:44;;;;;;;20.70;17.33;;;15.30;99.90;;;;;;6251636;22;20068;-67
2024/03/21 11:32:53;;;;;;;27.23;19.50;;;15.40;99.90;;;;;;6338877;22;20059;-67
2024/03/21 11:38:49;;;;;;;25.90;18.60;;;15.60;99.90;;;;;;6301451;22;20007;-67
2024/03/21 11:41:20;;;;;;;27.08;19.20;;;15.60;99.90;;;;;;6338766;22;20366;-67
2024/03/21 11:43:57;;;;;;;27.35;18.48;;;15.70;99.90;;;;;;6338535;22;20060;-67
2024/03/21 11:46:24;;;;;;;26.63;18.23;;;15.70;99.90;;;;;;6338477;22;20310;-67
2024/03/21 11:49:14;;;;;;;24.10;18.15;;;15.80;99.90;;;;;;6338747;22;20369;-67
2024/03/21 11:51:40;;;;;;;24.05;18.00;;;15.80;99.90;;;;;;6338416;22;20001;-68
2024/03/21 11:54:11;;;;;;;24.90;18.52;;;15.70;99.90;;;;;;6338333;22;19999;-68
2024/03/21 11:56:37;;;;;;;23.38;17.80;;;15.80;99.90;;;;;;6338167;22;20336;-68
2024/03/21 11:59:04;;;;;;;23.60;17.48;;;15.80;99.90;;;;;;6337696;22;20298;-68
2024/03/21 12:01:31;;;;;;;25.67;18.13;;;15.70;99.90;;;;;;6337465;22;20431;-67
2024/03/21 12:03:57;;;;;;;24.15;17.48;;;15.80;99.90;;;;;;6338201;22;20452;-68
2024/03/21 12:06:23;;;;;;;23.50;16.52;;;15.70;99.90;;;;;;6338114;22;19995;-67
2024/03/21 12:08:50;;;;;;;26.48;16.92;;;15.80;99.90;;;;;;6338269;22;20010;-68
2024/03/21 12:11:17;;;;;;;25.13;18.63;;;;;;;;;;6338524;22;20040;-68
2024/03/21 12:13:44;;;;;;;22.52;17.58;;;15.80;99.90;;;;;;6338400;22;20078;-68
2024/03/21 12:16:15;;;;;;;21.02;17.00;;;15.90;99.90;;;;;;6338273;22;20476;-68
2024/03/21 12:18:42;;;;;;;26.17;16.58;;;15.80;99.90;;;;;;6338145;22;20044;-67
2024/03/21 12:21:14;;;;;;;19.88;15.57;;;15.80;99.90;;;;;;6338283;22;20031;-67
2024/03/21 12:23:40;;;;;;;22.23;17.02;;;15.80;99.90;;;;;;6337951;22;20466;-68
2024/03/21 12:26:05;;;;;;;22.10;16.23;;;15.80;99.90;;;;;;6338522;22;20070;-67
2024/03/21 12:28:31;;;;;;;23.85;15.98;;;15.80;99.90;;;;;;6338071;22;20025;-67
2024/03/21 12:30:57;;;;;;;19.08;15.10;;;15.80;99.90;;;;;;6337636;22;20148;-68
2024/03/21 12:33:22;;;;;;;22.65;15.07;;;15.80;99.90;;;;;;6337961;22;20011;-67
2024/03/21 12:35:48;;;;;;;23.33;15.73;;;15.90;99.90;;;;;;6338082;22;20005;-67
2024/03/21 12:38:14;;;;;;;22.17;16.58;;;15.80;99.90;;;;;;6337791;22;20056;-68
2024/03/21 12:40:43;;;;;;;18.98;15.48;;;15.90;99.90;;;;;;6338161;22;20324;-67
2024/03/21 12:43:09;;;;;;;16.80;13.30;;;15.90;99.90;;;;;;6338355;22;20328;-67
2024/03/21 12:45:35;;;;;;;18.27;14.35;;;15.90;99.90;;;;;;6338562;22;20009;-68
2024/03/21 12:48:01;;;;;;;19.42;12.85;;;16.00;99.90;;;;;;6338647;22;20003;-68
2024/03/21 12:50:27;;;;;;;16.38;12.75;;;16.00;99.90;;;;;;6338829;22;19994;-68
2024/03/21 12:53:01;;;;;;;22.67;13.13;;;15.90;99.90;;;;;;6338615;22;20005;-68
2024/03/21 12:56:41;;;;;;;14.65;11.40;;;15.90;99.90;;;;;;6338198;22;20111;-67
2024/03/21 12:59:44;;;;;;;17.52;11.73;;;15.90;99.90;;;;;;6094158;23;20333;-67
2024/03/21 13:06:04;;;;;;;25.35;9.65;;;16.00;99.90;;;;;;6093842;23;20026;-68
2024/03/21 13:19:15;;;;;;;8.77;7.57;;;16.00;99.90;;;;;;6042181;23;20026;-68
2024/03/21 13:21:38;;;;;;;13.13;8.55;;;16.00;99.90;;;;;;6093960;23;20018;-68
2024/03/21 13:24:04;;;;;;;13.23;9.55;;;16.00;99.90;;;;;;6152486;23;20396;-68
2024/03/21 13:26:30;;;;;;;10.45;7.55;;;16.00;99.90;;;;;;6220727;22;20298;-68
2024/03/21 13:28:56;;;;;;;12.07;7.97;;;16.00;99.90;;;;;;6308107;22;20006;-68
2024/03/21 13:31:22;;;;;;;10.50;8.40;;;16.00;99.90;;;;;;6308322;22;19995;-68
2024/03/21 13:33:47;;;;;;;14.18;9.18;;;16.10;99.90;;;;;;6308497;22;20007;-68
2024/03/21 13:36:13;;;;;;;14.70;8.20;;;16.10;99.90;;;;;;6280452;22;20004;-68
2024/03/21 13:38:40;;;;;;;9.80;7.72;;;16.10;99.90;;;;;;6308170;22;19999;-68
2024/03/21 13:41:05;;;;;;;9.43;7.65;;;16.10;99.90;;;;;;6308653;22;20364;-67
2024/03/21 13:43:31;;;;;;;8.95;6.95;;;16.10;99.90;;;;;;6308588;22;20015;-67
2024/03/21 13:45:58;;;;;;;10.07;6.68;;;16.20;99.90;;;;;;6307851;22;20007;-67
2024/03/21 13:48:24;;;;;;;7.85;6.68;;;16.00;99.90;;;;;;6308175;22;20437;-67
2024/03/21 13:50:50;;;;;;;6.60;5.90;;;16.00;99.90;;;;;;6308805;22;20003;-67
2024/03/21 13:53:16;;;;;;;7.60;6.50;;;16.10;99.80;;;;;;6307734;22;20003;-67
2024/03/21 13:55:42;;;;;;;11.88;6.95;;;16.10;99.40;;;;;;6308304;22;20417;-67
2024/03/21 13:58:08;;;;;;;8.27;7.05;;;16.00;99.00;;;;;;6308672;22;20012;-67
2024/03/21 14:00:38;;;;;;;7.75;6.32;;;16.10;98.50;;;;;;6307824;22;19999;-66
2024/03/21 14:03:05;;;;;;;10.20;6.90;;;16.00;98.10;;;;;;6307489;22;20082;-68
2024/03/21 14:05:31;;;;;;;8.68;6.30;;;16.00;98.60;;;;;;6308284;22;20094;-67
2024/03/21 14:07:57;;;;;;;9.52;6.82;;;16.00;98.60;;;;;;6308180;22;20003;-67
2024/03/21 14:10:23;;;;;;;8.50;6.22;;;16.10;98.60;;;;;;6307678;22;19999;-68
2024/03/21 14:12:49;;;;;;;8.35;6.03;;;16.10;98.70;;;;;;6307820;22;20003;-67
2024/03/21 14:15:15;;;;;;;11.13;6.43;;;16.10;98.50;;;;;;6307802;22;20082;-68
2024/03/21 14:17:41;;;;;;;7.32;5.40;;;16.00;98.60;;;;;;6313965;22;20018;-67
2024/03/21 14:20:09;;;;;;;8.55;5.47;;;16.10;98.60;;;;;;6338868;22;20014;-68
2024/03/21 14:22:39;;;;;;;7.15;5.22;;;16.10;98.90;;;;;;6339274;22;20333;-67
2024/03/21 14:25:14;;;;;;;7.68;5.22;;;16.10;99.20;;;;;;6339054;22;20003;-68
2024/03/21 14:27:43;;;;;;;6.80;4.93;;;16.10;99.10;;;;;;6339667;22;20036;-67
2024/03/21 14:30:09;;;;;;;8.93;5.38;;;16.10;99.40;;;;;;6339680;22;20010;-68
2024/03/21 14:32:42;;;;;;;9.02;5.15;;;16.00;98.60;;;;;;6339843;22;19999;-68
2024/03/21 14:41:58;;;;;;;12.77;5.90;;;16.00;98.70;;;;;;6339503;22;20120;-68
2024/03/21 14:55:03;;;;;;;10.20;6.40;;;15.90;98.20;;;;;;5925168;24;20017;-68
2024/03/21 15:01:01;;;;;;;7.00;5.00;;;15.90;98.80;;;;;;6004633;23;20067;-67
2024/03/21 15:03:27;;;;;;;5.97;4.07;;;15.90;98.90;;;;;;6061868;23;20013;-67
2024/03/21 15:05:54;;;;;;;6.68;4.43;;;15.90;98.80;;;;;;6302395;22;20010;-68